Wetterdaten: aktuell Donnerstag, 08.06.2023 17:01
Datum Zeit Temperatur Luftfeuchte Luftdruck Regen Wind Richtung Richtung Taupunkt Windchill Windben
08.06.2023 17:01 16,6 C 77 % 1012,8 hPa 0,0 l/m 4,2 km/h (1 Bft) O-NO 63 12,5 C 16,6 C 6,4 km/h (2 Bft)
08.06.2023 17:00 16,6 C 76 % 1012,8 hPa 0,0 l/m 8,9 km/h (2 Bft) O 98 12,3 C 15,4 C 12,9 km/h (3 Bft)
08.06.2023 16:59 16,6 C 76 % 1012,8 hPa 0,0 l/m 10,0 km/h (2 Bft) O 97 12,3 C 14,9 C 14,5 km/h (3 Bft)
08.06.2023 16:58 16,6 C 78 % 1012,8 hPa 0,0 l/m 8,2 km/h (2 Bft) O-NO 78 12,7 C 15,7 C 12,9 km/h (3 Bft)
08.06.2023 16:57 16,6 C 78 % 1012,8 hPa 0,0 l/m 6,1 km/h (2 Bft) O-NO 78 12,7 C 16,6 C 14,5 km/h (3 Bft)
08.06.2023 16:56 16,6 C 78 % 1012,8 hPa 0,0 l/m 6,4 km/h (2 Bft) O-SO 103 12,7 C 16,6 C 16,1 km/h (3 Bft)
08.06.2023 16:55 16,6 C 80 % 1012,8 hPa 0,0 l/m 2,3 km/h (1 Bft) O 90 13,1 C 16,6 C 6,4 km/h (2 Bft)
08.06.2023 16:54 16,6 C 80 % 1012,8 hPa 0,0 l/m 5,4 km/h (2 Bft) SO 131 13,1 C 16,6 C 11,3 km/h (2 Bft)
08.06.2023 16:53 16,6 C 79 % 1012,8 hPa 0,0 l/m 3,2 km/h (1 Bft) SO 140 12,9 C 16,6 C 4,8 km/h (1 Bft)
08.06.2023 16:52 16,6 C 79 % 1012,8 hPa 0,0 l/m 4,8 km/h (1 Bft) O-SO 107 12,9 C 16,6 C 6,4 km/h (2 Bft)
08.06.2023 16:51 16,6 C 78 % 1012,9 hPa 0,0 l/m 3,8 km/h (1 Bft) O-NO 77 12,7 C 16,6 C 9,7 km/h (2 Bft)
08.06.2023 16:50 16,6 C 77 % 1012,9 hPa 0,0 l/m 6,8 km/h (2 Bft) O-NO 57 12,5 C 16,4 C 11,3 km/h (2 Bft)
08.06.2023 16:49 16,6 C 78 % 1012,9 hPa 0,0 l/m 4,0 km/h (1 Bft) O-NO 62 12,7 C 16,6 C 8,0 km/h (2 Bft)
08.06.2023 16:48 16,7 C 79 % 1012,9 hPa 0,0 l/m 1,2 km/h (1 Bft) O 92 13,0 C 16,7 C 3,2 km/h (1 Bft)
08.06.2023 16:47 16,7 C 79 % 1013,0 hPa 0,0 l/m 3,4 km/h (1 Bft) O-NO 62 13,0 C 16,7 C 6,4 km/h (2 Bft)
08.06.2023 16:46 16,7 C 78 % 1013,0 hPa 0,2 l/m 5,5 km/h (2 Bft) O 98 12,8 C 16,7 C 9,7 km/h (2 Bft)
08.06.2023 16:45 16,8 C 78 % 1013,0 hPa 0,0 l/m 4,2 km/h (1 Bft) O 86 12,9 C 16,8 C 6,4 km/h (2 Bft)
08.06.2023 16:44 16,8 C 78 % 1013,0 hPa 0,0 l/m 2,7 km/h (1 Bft) O 93 12,9 C 16,8 C 6,4 km/h (2 Bft)
08.06.2023 16:43 16,8 C 77 % 1013,0 hPa 0,0 l/m 5,1 km/h (1 Bft) S-SO 163 12,7 C 16,8 C 11,3 km/h (2 Bft)
08.06.2023 16:42 16,8 C 77 % 1012,9 hPa 0,0 l/m 3,9 km/h (1 Bft) O 100 12,7 C 16,8 C 9,7 km/h (2 Bft)
08.06.2023 16:41 16,8 C 76 % 1012,9 hPa 0,0 l/m 5,8 km/h (2 Bft) O-NO 66 12,5 C 16,8 C 9,7 km/h (2 Bft)
08.06.2023 16:40 16,8 C 76 % 1013,0 hPa 0,0 l/m 5,3 km/h (1 Bft) O-NO 74 12,5 C 16,8 C 11,3 km/h (2 Bft)
08.06.2023 16:39 16,8 C 76 % 1013,1 hPa 0,2 l/m 4,6 km/h (1 Bft) O-NO 74 12,5 C 16,8 C 11,3 km/h (2 Bft)
08.06.2023 16:38 16,8 C 77 % 1013,1 hPa 0,0 l/m 5,4 km/h (2 Bft) O-SO 106 12,7 C 16,8 C 9,7 km/h (2 Bft)
08.06.2023 16:37 16,8 C 75 % 1013,0 hPa 0,0 l/m 9,5 km/h (2 Bft) O 94 12,3 C 15,3 C 14,5 km/h (3 Bft)
08.06.2023 16:36 16,8 C 76 % 1013,0 hPa 0,0 l/m 6,1 km/h (2 Bft) O-SO 109 12,5 C 16,8 C 12,9 km/h (3 Bft)
08.06.2023 16:35 16,9 C 75 % 1013,0 hPa 0,0 l/m 6,2 km/h (2 Bft) O-SO 117 12,4 C 16,9 C 9,7 km/h (2 Bft)
08.06.2023 16:34 16,9 C 74 % 1013,0 hPa 0,0 l/m 5,6 km/h (2 Bft) O 89 12,2 C 16,9 C 11,3 km/h (2 Bft)
08.06.2023 16:33 17,0 C 75 % 1013,1 hPa 0,0 l/m 8,2 km/h (2 Bft) O-SO 113 12,5 C 16,1 C 17,7 km/h (3 Bft)
08.06.2023 16:32 17,0 C 75 % 1013,1 hPa 0,0 l/m 5,6 km/h (2 Bft) O-NO 61 12,5 C 17,0 C 14,5 km/h (3 Bft)
08.06.2023 16:31 17,0 C 75 % 1013,0 hPa 0,0 l/m 8,3 km/h (2 Bft) O-NO 71 12,5 C 16,1 C 14,5 km/h (3 Bft)
08.06.2023 16:30 17,0 C 75 % 1013,0 hPa 0,0 l/m 6,6 km/h (2 Bft) O-SO 117 12,5 C 16,9 C 14,5 km/h (3 Bft)
08.06.2023 16:29 17,0 C 76 % 1013,0 hPa 0,0 l/m 3,2 km/h (1 Bft) NO 49 12,7 C 17,0 C 9,7 km/h (2 Bft)
08.06.2023 16:28 17,0 C 75 % 1013,1 hPa 0,0 l/m 7,9 km/h (2 Bft) O-NO 65 12,5 C 16,2 C 12,9 km/h (3 Bft)
08.06.2023 16:27 17,0 C 74 % 1013,1 hPa 0,0 l/m 5,6 km/h (2 Bft) S-SW 198 12,3 C 17,0 C 9,7 km/h (2 Bft)
08.06.2023 16:26 17,0 C 75 % 1013,1 hPa 0,0 l/m 8,5 km/h (2 Bft) O-SO 120 12,5 C 16,0 C 14,5 km/h (3 Bft)
08.06.2023 16:25 17,1 C 75 % 1013,1 hPa 0,0 l/m 9,1 km/h (2 Bft) O 82 12,6 C 15,8 C 12,9 km/h (3 Bft)
08.06.2023 16:24 17,1 C 75 % 1013,1 hPa 0,0 l/m 7,3 km/h (2 Bft) O-SO 119 12,6 C 16,6 C 14,5 km/h (3 Bft)
08.06.2023 16:23 17,2 C 78 % 1013,2 hPa 0,0 l/m 7,2 km/h (2 Bft) SO 143 13,3 C 16,8 C 11,3 km/h (2 Bft)
08.06.2023 16:22 17,2 C 78 % 1013,2 hPa 0,0 l/m 5,3 km/h (1 Bft) O-NO 59 13,3 C 17,2 C 11,3 km/h (2 Bft)
08.06.2023 16:21 17,3 C 78 % 1013,2 hPa 0,0 l/m 7,4 km/h (2 Bft) O 90 13,4 C 16,8 C 11,3 km/h (2 Bft)
08.06.2023 16:20 17,3 C 78 % 1013,2 hPa 0,0 l/m 12,0 km/h (2 Bft) NO 36 13,4 C 14,9 C 16,1 km/h (3 Bft)
08.06.2023 16:19 17,3 C 80 % 1013,2 hPa 0,0 l/m 7,1 km/h (2 Bft) O-NO 65 13,8 C 17,0 C 12,9 km/h (3 Bft)
08.06.2023 16:18 17,3 C 81 % 1013,2 hPa 0,0 l/m 5,9 km/h (2 Bft) O 98 14,0 C 17,3 C 12,9 km/h (3 Bft)
08.06.2023 16:17 17,3 C 79 % 1013,2 hPa 0,0 l/m 5,7 km/h (2 Bft) O-SO 103 13,6 C 17,3 C 12,9 km/h (3 Bft)
08.06.2023 16:16 17,2 C 79 % 1013,2 hPa 0,0 l/m 8,2 km/h (2 Bft) O 79 13,5 C 16,3 C 12,9 km/h (3 Bft)
08.06.2023 16:15 17,2 C 78 % 1013,2 hPa 0,0 l/m 5,2 km/h (1 Bft) N-NO 33 13,3 C 17,2 C 6,4 km/h (2 Bft)
08.06.2023 16:14 17,3 C 79 % 1013,1 hPa 0,0 l/m 6,8 km/h (2 Bft) O-SO 115 13,6 C 17,1 C 12,9 km/h (3 Bft)
08.06.2023 16:13 17,3 C 80 % 1013,2 hPa 0,0 l/m 7,4 km/h (2 Bft) O 86 13,8 C 16,8 C 12,9 km/h (3 Bft)
08.06.2023 16:12 17,2 C 80 % 1013,2 hPa 0,0 l/m 7,6 km/h (2 Bft) O 94 13,7 C 16,6 C 11,3 km/h (2 Bft)
08.06.2023 16:11 17,3 C 78 % 1013,2 hPa 0,0 l/m 5,0 km/h (1 Bft) O-SO 113 13,4 C 17,3 C 11,3 km/h (2 Bft)
08.06.2023 16:10 17,3 C 79 % 1013,2 hPa 0,0 l/m 5,2 km/h (1 Bft) O 93 13,6 C 17,3 C 6,4 km/h (2 Bft)
08.06.2023 16:09 17,3 C 80 % 1013,2 hPa 0,0 l/m 4,0 km/h (1 Bft) O-SO 110 13,8 C 17,3 C 6,4 km/h (2 Bft)
08.06.2023 16:08 17,3 C 79 % 1013,1 hPa 0,0 l/m 5,8 km/h (2 Bft) O 95 13,6 C 17,3 C 11,3 km/h (2 Bft)
08.06.2023 16:07 17,3 C 79 % 1013,2 hPa 0,0 l/m 3,8 km/h (1 Bft) O 92 13,6 C 17,3 C 6,4 km/h (2 Bft)
08.06.2023 16:06 17,3 C 79 % 1013,3 hPa 0,0 l/m 4,2 km/h (1 Bft) O-SO 119 13,6 C 17,3 C 6,4 km/h (2 Bft)
08.06.2023 16:05 17,4 C 78 % 1013,3 hPa 0,0 l/m 8,4 km/h (2 Bft) O 81 13,5 C 16,4 C 12,9 km/h (3 Bft)
08.06.2023 16:04 17,3 C 78 % 1013,3 hPa 0,0 l/m 9,5 km/h (2 Bft) O 92 13,4 C 15,9 C 14,5 km/h (3 Bft)
08.06.2023 16:03 17,3 C 77 % 1013,3 hPa 0,0 l/m 5,9 km/h (2 Bft) O-SO 119 13,2 C 17,3 C 11,3 km/h (2 Bft)
08.06.2023 16:02 17,3 C 78 % 1013,3 hPa 0,0 l/m 4,2 km/h (1 Bft) SO 125 13,4 C 17,3 C 6,4 km/h (2 Bft)
08.06.2023 16:01 17,4 C 77 % 1013,4 hPa 0,0 l/m 3,4 km/h (1 Bft) O 99 13,3 C 17,4 C 6,4 km/h (2 Bft)
08.06.2023 16:00 17,3 C 76 % 1013,3 hPa 0,0 l/m 0,9 km/h (0 Bft) O 99 13,0 C 17,3 C 3,2 km/h (1 Bft)
08.06.2023 15:59 17,3 C 75 % 1013,4 hPa 0,0 l/m 2,1 km/h (1 Bft) O 97 12,8 C 17,3 C 4,8 km/h (1 Bft)
08.06.2023 15:58 17,3 C 75 % 1013,4 hPa 0,0 l/m 4,0 km/h (1 Bft) O-SO 111 12,8 C 17,3 C 4,8 km/h (1 Bft)
08.06.2023 15:57 17,3 C 76 % 1013,3 hPa 0,0 l/m 4,1 km/h (1 Bft) O-SO 105 13,0 C 17,3 C 6,4 km/h (2 Bft)
08.06.2023 15:56 17,3 C 76 % 1013,3 hPa 0,0 l/m 4,3 km/h (1 Bft) O-NO 78 13,0 C 17,3 C 6,4 km/h (2 Bft)
08.06.2023 15:55 17,3 C 76 % 1013,3 hPa 0,0 l/m 3,3 km/h (1 Bft) O-NO 67 13,0 C 17,3 C 4,8 km/h (1 Bft)
08.06.2023 15:54 17,3 C 77 % 1013,3 hPa 0,0 l/m 2,6 km/h (1 Bft) O-NO 68 13,2 C 17,3 C 4,8 km/h (1 Bft)
08.06.2023 15:53 17,3 C 76 % 1013,3 hPa 0,0 l/m 2,4 km/h (1 Bft) S 190 13,0 C 17,3 C 4,8 km/h (1 Bft)
08.06.2023 15:52 17,4 C 76 % 1013,3 hPa 0,0 l/m 1,8 km/h (1 Bft) S 191 13,1 C 17,4 C 3,2 km/h (1 Bft)
08.06.2023 15:51 17,4 C 75 % 1013,3 hPa 0,0 l/m 1,1 km/h (1 Bft) S-SW 192 12,9 C 17,4 C 3,2 km/h (1 Bft)
08.06.2023 15:50 17,4 C 75 % 1013,3 hPa 0,0 l/m 2,0 km/h (1 Bft) S-SW 194 12,9 C 17,4 C 3,2 km/h (1 Bft)
08.06.2023 15:49 17,4 C 76 % 1013,3 hPa 0,0 l/m 1,9 km/h (1 Bft) S-SW 194 13,1 C 17,4 C 3,2 km/h (1 Bft)
08.06.2023 15:48 17,5 C 77 % 1013,4 hPa 0,0 l/m 2,0 km/h (1 Bft) SW 217 13,4 C 17,5 C 3,2 km/h (1 Bft)
08.06.2023 15:47 17,5 C 76 % 1013,4 hPa 0,0 l/m 1,5 km/h (1 Bft) SO 128 13,2 C 17,5 C 3,2 km/h (1 Bft)
08.06.2023 15:46 17,5 C 76 % 1013,4 hPa 0,0 l/m 0,9 km/h (0 Bft) SO 124 13,2 C 17,5 C 1,6 km/h (1 Bft)
08.06.2023 15:45 17,5 C 76 % 1013,4 hPa 0,0 l/m 1,5 km/h (1 Bft) O-SO 113 13,2 C 17,5 C 3,2 km/h (1 Bft)
08.06.2023 15:44 17,5 C 75 % 1013,4 hPa 0,0 l/m 2,4 km/h (1 Bft) O-SO 107 13,0 C 17,5 C 3,2 km/h (1 Bft)
08.06.2023 15:43 17,5 C 75 % 1013,4 hPa 0,0 l/m 2,9 km/h (1 Bft) O 90 13,0 C 17,5 C 4,8 km/h (1 Bft)
08.06.2023 15:42 17,5 C 76 % 1013,4 hPa 0,0 l/m 1,9 km/h (1 Bft) O-SO 123 13,2 C 17,5 C 3,2 km/h (1 Bft)
08.06.2023 15:41 17,5 C 76 % 1013,4 hPa 0,0 l/m 4,1 km/h (1 Bft) S 182 13,2 C 17,5 C 6,4 km/h (2 Bft)
08.06.2023 15:40 17,5 C 76 % 1013,4 hPa 0,0 l/m 2,5 km/h (1 Bft) O 80 13,2 C 17,5 C 4,8 km/h (1 Bft)
08.06.2023 15:39 17,5 C 75 % 1013,5 hPa 0,0 l/m 3,6 km/h (1 Bft) O 86 13,0 C 17,5 C 4,8 km/h (1 Bft)
08.06.2023 15:38 17,6 C 75 % 1013,5 hPa 0,0 l/m 3,3 km/h (1 Bft) O 98 13,1 C 17,6 C 4,8 km/h (1 Bft)
08.06.2023 15:37 17,6 C 76 % 1013,5 hPa 0,0 l/m 4,1 km/h (1 Bft) O-SO 104 13,3 C 17,6 C 6,4 km/h (2 Bft)
08.06.2023 15:36 17,6 C 77 % 1013,4 hPa 0,0 l/m 3,0 km/h (1 Bft) S-SO 160 13,5 C 17,6 C 6,4 km/h (2 Bft)
08.06.2023 15:35 17,7 C 79 % 1013,5 hPa 0,0 l/m 2,6 km/h (1 Bft) S-SO 162 14,0 C 17,7 C 6,4 km/h (2 Bft)
08.06.2023 15:34 17,7 C 78 % 1013,5 hPa 0,0 l/m 1,5 km/h (1 Bft) S-SO 152 13,8 C 17,7 C 3,2 km/h (1 Bft)
08.06.2023 15:33 17,7 C 77 % 1013,5 hPa 0,0 l/m 1,8 km/h (1 Bft) S-SO 152 13,6 C 17,7 C 3,2 km/h (1 Bft)
08.06.2023 15:32 17,7 C 77 % 1013,5 hPa 0,0 l/m 2,0 km/h (1 Bft) S-SO 152 13,6 C 17,7 C 3,2 km/h (1 Bft)
08.06.2023 15:31 17,8 C 77 % 1013,5 hPa 0,0 l/m 1,8 km/h (1 Bft) SO 146 13,7 C 17,8 C 3,2 km/h (1 Bft)
08.06.2023 15:30 17,8 C 76 % 1013,5 hPa 0,0 l/m 1,4 km/h (1 Bft) S-SO 151 13,5 C 17,8 C 3,2 km/h (1 Bft)
08.06.2023 15:29 17,8 C 76 % 1013,5 hPa 0,0 l/m 2,4 km/h (1 Bft) S-SO 151 13,5 C 17,8 C 4,8 km/h (1 Bft)
08.06.2023 15:28 17,8 C 76 % 1013,5 hPa 0,0 l/m 1,8 km/h (1 Bft) SO 138 13,5 C 17,8 C 3,2 km/h (1 Bft)
08.06.2023 15:27 17,8 C 74 % 1013,5 hPa 0,0 l/m 2,3 km/h (1 Bft) SO 140 13,1 C 17,8 C 3,2 km/h (1 Bft)
08.06.2023 15:26 17,8 C 75 % 1013,5 hPa 0,0 l/m 2,7 km/h (1 Bft) SO 140 13,3 C 17,8 C 3,2 km/h (1 Bft)
08.06.2023 15:25 17,9 C 77 % 1013,5 hPa 0,0 l/m 1,0 km/h (0 Bft) SO 126 13,8 C 17,9 C 1,6 km/h (1 Bft)
08.06.2023 15:24 17,9 C 77 % 1013,5 hPa 0,0 l/m 1,3 km/h (1 Bft) SO 126 13,8 C 17,9 C 3,2 km/h (1 Bft)
08.06.2023 15:23 17,8 C 78 % 1013,5 hPa 0,0 l/m 3,0 km/h (1 Bft) SO 146 13,9 C 17,8 C 8,0 km/h (2 Bft)
08.06.2023 15:22 17,8 C 78 % 1013,6 hPa 0,0 l/m 3,9 km/h (1 Bft) S-SO 165 13,9 C 17,8 C 6,4 km/h (2 Bft)
_ Min-Zeit 05:08 18:26 16:52 - 19:05 - - 05:43 05:43 19:05
Minimum _ 11,5 C 67 % 1012,8 hPa - 0,0 km/h (0 Bft) - - 9,2 C 11,5 C 0,0 km/h (0 Bft)
_ Max-Zeit 14:56 13:34 22:31 12:42 10:10 - - 14:44 14:56 12:43
Maximum _ 18,3 C 89 % 1016,1 hPa 1,2 l/m 12,0 km/h
O (2 Bft)
- - 14,5 C 18,3 C 19,3 km/h
S-SW (3 Bft)
Durchschnitt _ 14,9 C 79 % 1014,9 hPa #11,6 l/m 2,7 km/h (1 Bft) O - 11,3 C 14,9 C 4,9 km/h (1 Bft)
(c) Klimastation Oberbreitenau